Time;durP1;ratioP1;P1;durP2;ratioP2;P2;SDS_P1;SDS_P2;PMS_P1;PMS_P2;Temp;Humidity;BMP_temperature;BMP_pressure;BME280_temperature;BME280_humidity;BME280_pressure;Samples;Min_cycle;Max_cycle;Signal;HPM_P1;HPM_P2
2022/12/28 00:01:24;;;;;;;13.55;4.80;;;6.30;99.90;;;;;;5046578;28;20037;-59
2022/12/28 00:03:51;;;;;;;12.75;5.18;;;6.30;99.90;;;;;;5037839;28;20616;-62
2022/12/28 00:06:17;;;;;;;11.90;4.80;;;6.30;99.90;;;;;;5037614;28;20108;-53
2022/12/28 00:08:43;;;;;;;10.57;4.85;;;6.30;99.90;;;;;;5034380;28;20064;-57
2022/12/28 00:11:15;;;;;;;10.50;4.35;;;6.30;99.90;;;;;;5038551;28;20041;-58
2022/12/28 00:13:41;;;;;;;11.05;4.72;;;6.30;99.90;;;;;;5037884;28;20044;-59
2022/12/28 00:16:08;;;;;;;14.38;5.85;;;6.30;99.90;;;;;;5035876;28;20444;-59
2022/12/28 00:18:34;;;;;;;15.27;5.13;;;6.30;99.90;;;;;;5036994;28;20044;-60
2022/12/28 00:21:01;;;;;;;8.52;5.15;;;6.30;99.90;;;;;;5022633;28;20119;-59
2022/12/28 00:23:27;;;;;;;14.30;5.00;;;6.30;99.90;;;;;;5036373;28;21523;-57
2022/12/28 00:25:53;;;;;;;11.23;4.97;;;6.30;99.90;;;;;;5032724;28;20032;-57
2022/12/28 00:28:19;;;;;;;14.00;5.45;;;6.30;99.90;;;;;;5039627;28;20051;-56
2022/12/28 00:30:45;;;;;;;11.98;5.50;;;6.30;99.90;;;;;;5035088;28;20049;-56
2022/12/28 00:33:10;;;;;;;15.13;6.88;;;6.30;99.90;;;;;;5041756;28;20041;-57
2022/12/28 00:35:36;;;;;;;12.77;7.28;;;6.30;99.90;;;;;;5036403;28;20252;-60
2022/12/28 00:38:02;;;;;;;12.57;5.40;;;6.30;99.90;;;;;;5033521;28;20083;-59
2022/12/28 00:40:27;;;;;;;9.40;5.25;;;6.30;99.90;;;;;;5032998;28;20041;-56
2022/12/28 00:42:53;;;;;;;14.13;6.03;;;6.30;99.90;;;;;;5053748;28;20532;-57
2022/12/28 00:45:19;;;;;;;16.25;6.20;;;6.30;99.90;;;;;;5035027;28;20044;-58
2022/12/28 00:47:44;;;;;;;13.38;6.45;;;6.30;99.90;;;;;;5037293;28;20036;-61
2022/12/28 00:50:10;;;;;;;10.73;5.50;;;6.30;99.90;;;;;;5022262;28;20454;-62
2022/12/28 00:52:36;;;;;;;11.35;6.53;;;6.30;99.90;;;;;;5037663;28;20025;-55
2022/12/28 00:55:02;;;;;;;12.13;5.75;;;6.30;99.90;;;;;;5043080;28;20040;-56
2022/12/28 00:57:29;;;;;;;13.50;6.53;;;6.40;99.90;;;;;;5035716;28;20043;-56
2022/12/28 00:59:54;;;;;;;9.85;6.03;;;6.40;99.90;;;;;;5033561;28;20220;-62
2022/12/28 01:02:20;;;;;;;13.20;6.38;;;6.40;99.90;;;;;;5040534;28;20077;-57
2022/12/28 01:04:46;;;;;;;14.40;7.05;;;6.40;99.90;;;;;;5029897;28;20043;-60
2022/12/28 01:07:11;;;;;;;10.23;5.07;;;6.40;99.90;;;;;;5030566;28;20479;-56
2022/12/28 01:09:37;;;;;;;11.90;6.25;;;6.40;99.90;;;;;;5036864;28;20165;-59
2022/12/28 01:12:03;;;;;;;12.75;6.72;;;6.50;99.90;;;;;;5037843;28;20248;-57
2022/12/28 01:14:29;;;;;;;13.10;6.90;;;6.40;99.90;;;;;;5036314;28;20470;-57
2022/12/28 01:16:54;;;;;;;10.90;6.25;;;6.40;99.90;;;;;;5038906;28;20061;-57
2022/12/28 01:19:22;;;;;;;13.18;6.63;;;6.40;99.90;;;;;;5035713;28;20148;-61
2022/12/28 01:21:50;;;;;;;13.70;6.82;;;6.40;99.90;;;;;;5035606;28;20040;-56
2022/12/28 01:24:16;;;;;;;13.65;7.45;;;6.40;99.90;;;;;;5035178;28;20138;-56
2022/12/28 01:26:42;;;;;;;12.40;7.28;;;6.40;99.90;;;;;;5036910;28;20426;-57
2022/12/28 01:29:08;;;;;;;13.70;7.63;;;6.40;99.90;;;;;;5037514;28;20029;-59
2022/12/28 01:31:34;;;;;;;15.55;7.30;;;6.40;99.90;;;;;;5037681;28;20029;-55
2022/12/28 01:34:01;;;;;;;14.38;7.35;;;6.40;99.90;;;;;;5038237;28;20040;-55
2022/12/28 01:36:30;;;;;;;16.88;6.95;;;6.40;99.90;;;;;;5037659;28;20044;-52
2022/12/28 01:39:02;;;;;;;14.85;7.93;;;6.40;99.90;;;;;;5034313;28;20503;-62
2022/12/28 01:41:29;;;;;;;13.07;7.10;;;6.40;99.90;;;;;;5038083;28;21651;-57
2022/12/28 01:43:54;;;;;;;16.13;7.85;;;6.40;99.90;;;;;;5034690;28;20049;-57
2022/12/28 01:46:33;;;;;;;15.15;8.23;;;6.40;99.90;;;;;;5018744;28;20045;-59
2022/12/28 01:49:08;;;;;;;18.50;8.50;;;6.40;99.90;;;;;;5038458;28;20037;-58
2022/12/28 01:51:51;;;;;;;12.05;8.07;;;6.40;99.90;;;;;;5028480;28;20065;-60
2022/12/28 01:54:19;;;;;;;14.23;8.43;;;6.40;99.90;;;;;;5032481;28;20049;-54
2022/12/28 01:56:46;;;;;;;18.10;8.60;;;6.40;99.90;;;;;;5036072;28;20045;-56
2022/12/28 01:59:12;;;;;;;15.63;8.85;;;6.40;99.90;;;;;;5054573;28;20056;-56
2022/12/28 02:01:38;;;;;;;14.13;8.45;;;6.40;99.90;;;;;;5038598;28;20425;-56
2022/12/28 02:04:04;;;;;;;13.05;8.98;;;6.40;99.90;;;;;;5038906;28;20059;-56
2022/12/28 02:06:30;;;;;;;17.35;9.20;;;6.40;99.90;;;;;;5038234;28;20407;-55
2022/12/28 02:09:15;;;;;;;19.10;8.88;;;6.40;99.90;;;;;;5036486;28;20087;-60
2022/12/28 02:11:42;;;;;;;14.27;9.20;;;6.40;99.90;;;;;;5037987;28;20501;-58
2022/12/28 02:14:10;;;;;;;14.43;9.65;;;6.50;99.90;;;;;;5042476;28;20550;-59
2022/12/28 02:16:36;;;;;;;22.08;9.45;;;6.50;99.90;;;;;;5041799;28;20083;-58
2022/12/28 02:19:04;;;;;;;14.45;9.20;;;6.50;99.90;;;;;;5042337;28;20076;-55
2022/12/28 02:22:08;;;;;;;17.55;9.45;;;6.50;99.90;;;;;;5035842;28;20080;-57
2022/12/28 02:24:44;;;;;;;18.48;10.32;;;6.60;99.90;;;;;;5028234;28;20168;-56
2022/12/28 02:27:19;;;;;;;16.83;8.73;;;6.60;99.90;;;;;;5045465;28;20087;-55
2022/12/28 02:30:06;;;;;;;18.65;9.70;;;6.60;99.90;;;;;;5039659;28;20278;-60
2022/12/28 02:32:50;;;;;;;19.02;10.27;;;6.60;99.90;;;;;;5040617;28;20048;-61
2022/12/28 02:35:42;;;;;;;17.67;9.10;;;6.60;99.90;;;;;;5039379;28;20037;-56
2022/12/28 02:38:55;;;;;;;16.02;9.27;;;6.60;99.90;;;;;;5040661;28;20033;-61
2022/12/28 02:41:24;;;;;;;15.57;10.57;;;6.70;99.90;;;;;;5033803;28;20053;-56
2022/12/28 02:43:50;;;;;;;16.50;10.02;;;6.60;99.90;;;;;;5034422;28;20587;-58
2022/12/28 02:52:20;;;;;;;18.80;11.23;;;6.70;99.90;;;;;;5038043;28;20045;-58
2022/12/28 02:58:00;;;;;;;17.90;12.43;;;6.70;99.90;;;;;;5028422;28;20602;-56
2022/12/28 03:00:34;;;;;;;17.83;11.27;;;6.70;99.90;;;;;;5028217;28;20044;-60
2022/12/28 03:03:27;;;;;;;17.02;12.05;;;6.70;99.90;;;;;;5038276;28;20123;-56
2022/12/28 03:09:16;;;;;;;16.10;11.50;;;6.70;99.90;;;;;;5047881;28;20104;-58
2022/12/28 03:12:02;;;;;;;15.68;12.07;;;6.70;99.90;;;;;;5050234;28;20045;-58
2022/12/28 03:14:38;;;;;;;17.55;12.05;;;6.80;99.90;;;;;;5034121;28;20038;-53
2022/12/28 03:31:05;;;;;;;22.38;14.45;;;6.80;99.90;;;;;;5023333;28;20652;-58
2022/12/28 03:33:33;;;;;;;23.08;13.88;;;6.90;99.90;;;;;;5030816;28;20071;-58
2022/12/28 03:36:14;;;;;;;21.65;13.60;;;6.90;99.90;;;;;;5020818;28;20148;-58
2022/12/28 03:38:59;;;;;;;16.58;12.45;;;6.90;99.90;;;;;;5026000;28;20136;-58
2022/12/28 03:41:34;;;;;;;17.40;13.15;;;6.90;99.90;;;;;;5012122;28;20384;-57
2022/12/28 03:44:09;;;;;;;18.42;13.50;;;7.00;99.90;;;;;;5005555;28;20045;-58
2022/12/28 03:46:48;;;;;;;21.42;13.48;;;6.90;99.90;;;;;;5026633;28;20056;-58
2022/12/28 03:49:14;;;;;;;19.42;13.98;;;7.00;99.90;;;;;;5041305;28;20161;-58
2022/12/28 03:51:41;;;;;;;20.83;14.05;;;7.00;99.90;;;;;;5022550;28;20041;-58
2022/12/28 03:54:07;;;;;;;21.65;14.75;;;7.00;99.90;;;;;;5039545;28;20060;-58
2022/12/28 03:56:33;;;;;;;19.52;15.23;;;7.00;99.90;;;;;;5022486;28;20493;-58
2022/12/28 03:58:58;;;;;;;18.77;14.55;;;7.00;99.90;;;;;;5024671;28;20059;-58
2022/12/28 04:01:24;;;;;;;19.20;13.57;;;7.10;99.90;;;;;;5009889;28;20217;-58
2022/12/28 04:03:50;;;;;;;21.40;14.57;;;7.10;99.90;;;;;;5019022;28;20056;-58
2022/12/28 04:06:18;;;;;;;18.23;13.55;;;7.10;99.90;;;;;;5012602;28;20499;-58
2022/12/28 04:08:45;;;;;;;20.13;13.93;;;7.10;99.90;;;;;;5033163;28;20175;-58
2022/12/28 04:11:11;;;;;;;21.05;14.32;;;7.20;99.90;;;;;;5003507;28;20419;-58
2022/12/28 04:13:37;;;;;;;19.17;14.48;;;7.20;99.90;;;;;;4997817;28;20064;-58
2022/12/28 04:16:07;;;;;;;20.80;14.00;;;7.20;99.90;;;;;;5027411;28;20507;-58
2022/12/28 04:18:34;;;;;;;18.83;14.50;;;7.20;99.90;;;;;;5019721;28;20488;-58
2022/12/28 04:21:00;;;;;;;18.52;14.50;;;7.20;99.90;;;;;;5021977;28;20678;-57
2022/12/28 04:23:27;;;;;;;19.00;14.93;;;7.30;99.90;;;;;;5027856;28;20045;-58
2022/12/28 04:26:01;;;;;;;18.95;14.65;;;7.30;99.90;;;;;;5025871;28;20434;-57
2022/12/28 04:28:27;;;;;;;23.58;16.33;;;7.30;99.90;;;;;;5022180;28;20040;-58
2022/12/28 04:30:54;;;;;;;21.90;15.32;;;7.30;99.90;;;;;;5012820;28;20377;-58
2022/12/28 04:33:20;;;;;;;20.60;15.45;;;7.30;99.90;;;;;;5027840;28;20383;-57
2022/12/28 04:35:45;;;;;;;21.17;15.52;;;7.30;99.90;;;;;;5021399;28;20048;-58
2022/12/28 04:38:11;;;;;;;20.92;15.57;;;7.30;99.90;;;;;;5024122;28;20095;-58
2022/12/28 04:40:37;;;;;;;21.55;15.90;;;7.40;99.90;;;;;;5026492;28;20044;-57
2022/12/28 04:43:02;;;;;;;21.17;15.57;;;7.30;99.90;;;;;;5024432;28;20186;-58
2022/12/28 04:45:28;;;;;;;24.50;14.82;;;7.40;99.90;;;;;;5017253;28;20064;-58
2022/12/28 04:47:57;;;;;;;21.15;15.38;;;7.40;99.90;;;;;;5023800;28;20080;-58
2022/12/28 04:50:23;;;;;;;18.40;15.68;;;7.40;99.90;;;;;;5040209;28;20037;-58
2022/12/28 04:52:49;;;;;;;20.27;15.57;;;7.40;99.90;;;;;;5019926;28;20167;-58
2022/12/28 04:55:15;;;;;;;21.58;16.77;;;7.40;99.90;;;;;;5002307;28;20127;-58
2022/12/28 04:57:43;;;;;;;23.33;16.15;;;7.40;99.90;;;;;;5005646;28;20507;-58
2022/12/28 05:00:09;;;;;;;20.77;16.05;;;7.40;99.90;;;;;;5004819;28;20056;-58
2022/12/28 05:02:35;;;;;;;21.52;16.92;;;7.50;99.90;;;;;;5025778;28;20432;-58
2022/12/28 05:05:01;;;;;;;19.60;15.75;;;7.50;99.90;;;;;;5018498;28;20123;-58
2022/12/28 05:07:27;;;;;;;19.50;16.25;;;7.40;99.90;;;;;;5025533;28;20403;-58
2022/12/28 05:09:53;;;;;;;23.63;17.10;;;7.50;99.90;;;;;;5027901;28;20048;-58
2022/12/28 05:12:19;;;;;;;20.95;17.08;;;7.50;99.90;;;;;;5042844;28;20036;-58
2022/12/28 05:14:45;;;;;;;27.38;16.77;;;7.50;99.90;;;;;;5023851;28;20466;-58
2022/12/28 05:17:11;;;;;;;20.65;16.77;;;7.50;99.90;;;;;;5011675;28;20120;-58
2022/12/28 05:19:37;;;;;;;21.17;15.82;;;7.50;99.90;;;;;;5024400;28;20501;-58
2022/12/28 05:22:03;;;;;;;22.70;16.55;;;7.50;99.90;;;;;;5024467;28;20048;-58
2022/12/28 05:24:29;;;;;;;22.55;16.23;;;7.50;99.90;;;;;;5040062;28;20033;-58
2022/12/28 05:26:54;;;;;;;23.90;16.92;;;7.50;99.90;;;;;;5027507;28;20073;-58
2022/12/28 05:29:20;;;;;;;24.15;17.70;;;7.50;99.90;;;;;;5043658;28;20492;-58
2022/12/28 05:31:46;;;;;;;24.25;16.98;;;7.50;99.90;;;;;;5029357;28;20044;-58
2022/12/28 05:34:12;;;;;;;21.73;17.30;;;7.50;99.90;;;;;;5026663;28;20033;-58
2022/12/28 05:36:38;;;;;;;21.85;16.23;;;7.50;99.90;;;;;;5024648;28;20115;-58
2022/12/28 05:39:05;;;;;;;22.27;17.13;;;7.50;99.90;;;;;;4999971;28;20033;-58
2022/12/28 05:41:31;;;;;;;22.58;16.98;;;7.50;99.90;;;;;;5004935;28;20041;-59
2022/12/28 05:43:58;;;;;;;22.63;16.65;;;7.50;99.90;;;;;;5019796;28;20036;-58
2022/12/28 05:46:30;;;;;;;20.70;15.98;;;7.50;99.90;;;;;;5017937;28;20047;-58
2022/12/28 05:48:56;;;;;;;22.20;16.17;;;7.50;99.90;;;;;;5028937;28;20037;-58
2022/12/28 05:51:24;;;;;;;22.48;16.55;;;7.50;99.90;;;;;;5019745;28;20048;-58
2022/12/28 05:53:50;;;;;;;20.33;15.23;;;7.60;99.90;;;;;;5001098;28;20051;-58
2022/12/28 05:56:22;;;;;;;22.65;16.02;;;7.50;99.90;;;;;;4996343;28;20040;-58
2022/12/28 05:58:53;;;;;;;20.50;15.55;;;7.60;99.90;;;;;;5017970;28;20045;-58
2022/12/28 06:01:22;;;;;;;21.45;15.77;;;7.60;99.90;;;;;;5020628;28;20034;-58
2022/12/28 06:03:52;;;;;;;23.63;15.82;;;7.60;99.90;;;;;;5019747;28;20047;-58
2022/12/28 06:06:19;;;;;;;18.42;14.95;;;7.60;99.90;;;;;;5036473;28;20490;-58
2022/12/28 06:08:46;;;;;;;19.88;14.88;;;7.60;99.90;;;;;;5028187;28;20130;-58
2022/12/28 06:11:15;;;;;;;19.65;15.10;;;7.60;99.90;;;;;;5019083;28;20037;-58
2022/12/28 06:13:41;;;;;;;21.10;14.38;;;7.70;99.90;;;;;;5012461;28;20189;-58
2022/12/28 06:16:12;;;;;;;19.90;14.68;;;7.70;99.90;;;;;;5034215;28;20172;-58
2022/12/28 06:18:37;;;;;;;17.52;13.52;;;7.70;99.90;;;;;;5023301;28;20519;-58
2022/12/28 06:21:27;;;;;;;17.90;13.48;;;7.70;99.90;;;;;;5000983;28;20040;-58
2022/12/28 06:23:56;;;;;;;23.45;14.43;;;7.80;99.90;;;;;;5033737;28;20128;-58
2022/12/28 06:26:23;;;;;;;21.83;14.25;;;7.80;99.90;;;;;;5028021;28;20047;-59
2022/12/28 06:28:49;;;;;;;20.20;13.18;;;7.80;99.90;;;;;;5018270;28;20106;-59
2022/12/28 06:31:21;;;;;;;18.45;12.63;;;7.80;99.90;;;;;;5035622;28;20047;-58
2022/12/28 06:33:47;;;;;;;20.83;12.98;;;7.90;99.90;;;;;;5008289;28;20056;-59
2022/12/28 06:36:16;;;;;;;19.42;13.85;;;7.90;99.90;;;;;;5005450;28;20467;-58
2022/12/28 06:38:42;;;;;;;18.27;12.75;;;7.90;99.90;;;;;;5025453;28;20183;-58
2022/12/28 06:41:09;;;;;;;20.23;13.45;;;7.90;99.90;;;;;;5039528;28;20541;-59
2022/12/28 06:43:37;;;;;;;17.70;13.07;;;7.90;99.90;;;;;;5019998;28;20504;-58
2022/12/28 06:46:03;;;;;;;17.55;13.13;;;7.90;99.90;;;;;;5037325;28;20561;-58
2022/12/28 06:48:30;;;;;;;16.65;12.30;;;7.90;99.90;;;;;;5043232;28;20060;-58
2022/12/28 06:51:09;;;;;;;17.42;12.65;;;7.90;99.90;;;;;;5024532;28;20499;-59
2022/12/28 06:53:36;;;;;;;22.30;13.05;;;8.00;99.90;;;;;;5021032;28;20231;-58
2022/12/28 06:56:09;;;;;;;17.50;12.25;;;8.00;99.90;;;;;;5023494;28;20404;-58
2022/12/28 06:58:34;;;;;;;20.25;12.70;;;7.90;99.90;;;;;;5004942;28;20449;-58
2022/12/28 07:01:09;;;;;;;22.35;13.38;;;8.00;99.90;;;;;;5016119;28;20037;-59
2022/12/28 07:03:34;;;;;;;23.52;13.30;;;8.00;99.90;;;;;;5018755;28;20056;-58
2022/12/28 07:06:01;;;;;;;17.25;12.82;;;7.90;99.90;;;;;;5029660;28;20037;-58
2022/12/28 07:08:27;;;;;;;21.58;12.77;;;7.90;99.90;;;;;;5012505;28;20042;-59
2022/12/28 07:10:53;;;;;;;19.20;13.63;;;8.00;99.90;;;;;;5021168;28;20044;-58
2022/12/28 07:13:19;;;;;;;21.58;14.35;;;8.00;99.90;;;;;;5028258;28;20045;-59
2022/12/28 07:15:45;;;;;;;25.85;15.40;;;8.00;99.90;;;;;;5007699;28;20045;-58
2022/12/28 07:18:10;;;;;;;20.98;13.93;;;8.00;99.90;;;;;;5025706;28;20340;-58
2022/12/28 07:20:36;;;;;;;22.50;14.50;;;8.30;99.90;;;;;;5023651;28;21063;-60
2022/12/28 07:23:02;;;;;;;23.95;14.43;;;8.00;99.90;;;;;;5008061;28;20072;-60
2022/12/28 07:25:28;;;;;;;20.13;14.43;;;8.00;99.90;;;;;;5024250;28;20130;-59
2022/12/28 07:27:53;;;;;;;22.65;14.43;;;8.10;99.90;;;;;;5023402;28;20087;-59
2022/12/28 07:30:19;;;;;;;26.15;15.13;;;8.10;99.90;;;;;;5018069;28;20200;-59
2022/12/28 07:32:45;;;;;;;27.55;14.40;;;8.10;99.90;;;;;;5000884;28;20056;-60
2022/12/28 07:35:11;;;;;;;24.50;13.20;;;8.10;99.90;;;;;;5023209;28;20040;-60
2022/12/28 07:37:36;;;;;;;27.70;14.52;;;8.10;99.90;;;;;;5023404;28;20604;-60
2022/12/28 07:40:03;;;;;;;27.23;13.50;;;8.10;99.90;;;;;;5045484;28;20033;-60
2022/12/28 07:42:29;;;;;;;22.48;13.10;;;8.20;99.90;;;;;;5030041;28;20078;-59
2022/12/28 07:44:54;;;;;;;21.23;12.18;;;8.20;99.90;;;;;;5027098;28;20045;-60
2022/12/28 07:47:20;;;;;;;24.00;13.20;;;8.30;99.90;;;;;;5035586;28;20159;-60
2022/12/28 07:49:46;;;;;;;25.67;13.07;;;8.30;99.90;;;;;;5019755;28;20095;-59
2022/12/28 07:52:11;;;;;;;24.80;13.55;;;8.40;99.90;;;;;;5031122;28;20045;-60
2022/12/28 07:54:37;;;;;;;21.40;13.20;;;8.40;99.90;;;;;;5011062;28;20526;-60
2022/12/28 07:57:03;;;;;;;25.85;14.02;;;8.40;99.90;;;;;;5031484;28;20128;-59
2022/12/28 07:59:29;;;;;;;23.70;12.82;;;8.50;99.90;;;;;;5029635;28;20051;-59
2022/12/28 08:01:54;;;;;;;22.40;13.73;;;8.50;99.90;;;;;;5007717;28;20241;-60
2022/12/28 08:04:20;;;;;;;19.50;11.95;;;8.60;99.90;;;;;;5039817;28;20037;-60
2022/12/28 08:06:46;;;;;;;26.17;13.80;;;8.60;99.90;;;;;;5014015;28;20037;-59
2022/12/28 08:09:13;;;;;;;26.75;13.70;;;8.70;99.90;;;;;;5017241;28;20575;-59
2022/12/28 08:11:42;;;;;;;24.77;13.60;;;8.70;99.90;;;;;;5026234;28;20439;-60
2022/12/28 08:14:09;;;;;;;19.67;14.05;;;8.70;99.90;;;;;;5009733;28;20072;-59
2022/12/28 08:16:38;;;;;;;24.92;12.18;;;8.60;99.90;;;;;;5003345;28;20045;-59
2022/12/28 08:19:05;;;;;;;24.23;15.05;;;8.70;99.90;;;;;;5008020;28;20091;-60
2022/12/28 08:21:39;;;;;;;18.02;12.15;;;8.60;99.90;;;;;;4989900;28;20569;-60
2022/12/28 08:24:06;;;;;;;20.80;12.27;;;8.60;99.90;;;;;;5009262;28;20048;-60
2022/12/28 08:26:38;;;;;;;18.77;11.57;;;8.60;99.90;;;;;;5042221;28;20041;-60
2022/12/28 08:29:07;;;;;;;19.52;11.18;;;8.60;99.90;;;;;;5020924;28;20075;-60
2022/12/28 08:31:36;;;;;;;20.50;12.15;;;8.60;99.90;;;;;;5016728;28;20044;-60
2022/12/28 08:34:04;;;;;;;15.55;10.30;;;8.60;99.90;;;;;;5042688;28;20033;-60
2022/12/28 08:36:29;;;;;;;15.55;10.35;;;8.50;99.90;;;;;;5023487;28;20044;-60
2022/12/28 08:38:58;;;;;;;17.52;10.38;;;8.60;99.90;;;;;;5027512;28;20435;-60
2022/12/28 08:41:26;;;;;;;15.73;10.57;;;8.60;99.90;;;;;;5029274;28;20078;-60
2022/12/28 08:43:53;;;;;;;15.98;10.18;;;8.60;99.90;;;;;;5005811;28;20040;-60
2022/12/28 08:46:27;;;;;;;15.15;10.10;;;8.60;99.90;;;;;;5022860;28;20041;-60
2022/12/28 08:48:54;;;;;;;14.90;10.45;;;8.50;99.90;;;;;;5022523;28;20040;-60
2022/12/28 08:51:26;;;;;;;15.27;9.73;;;8.60;99.90;;;;;;5026505;28;20120;-60
2022/12/28 08:53:52;;;;;;;10.93;8.27;;;8.50;99.90;;;;;;5035139;28;20841;-59
2022/12/28 08:56:27;;;;;;;11.20;8.25;;;8.50;99.90;;;;;;5024635;28;20067;-60
2022/12/28 08:58:54;;;;;;;13.52;8.35;;;8.50;99.90;;;;;;5019748;28;20041;-60
2022/12/28 09:01:32;;;;;;;10.02;7.88;;;8.50;99.90;;;;;;5034863;28;20037;-60
2022/12/28 09:03:59;;;;;;;9.40;7.63;;;8.50;99.90;;;;;;5018678;28;20120;-59
2022/12/28 09:06:36;;;;;;;8.73;6.70;;;8.50;99.90;;;;;;5025263;28;20516;-60
2022/12/28 09:09:05;;;;;;;10.38;6.72;;;8.50;99.90;;;;;;5018611;28;20033;-60
2022/12/28 09:11:32;;;;;;;9.35;6.82;;;8.60;99.90;;;;;;5017240;28;20139;-60
2022/12/28 09:13:57;;;;;;;10.05;8.07;;;8.50;99.90;;;;;;5019879;28;20059;-61
2022/12/28 09:16:26;;;;;;;10.40;7.88;;;8.60;99.90;;;;;;4997184;28;20492;-60
2022/12/28 09:18:54;;;;;;;11.70;7.88;;;8.60;99.90;;;;;;5016867;28;20091;-60
2022/12/28 09:21:21;;;;;;;13.23;8.32;;;8.60;99.90;;;;;;5023629;28;20044;-60
2022/12/28 09:23:47;;;;;;;12.73;9.27;;;8.70;99.90;;;;;;5022987;28;20067;-60
2022/12/28 09:26:20;;;;;;;12.25;9.05;;;8.70;99.90;;;;;;5026689;22;20053;-60
2022/12/28 09:28:51;;;;;;;13.02;9.45;;;8.80;99.90;;;;;;5005304;28;20546;-56
2022/12/28 09:31:18;;;;;;;10.88;8.82;;;8.80;99.90;;;;;;4981204;28;20480;-60
2022/12/28 09:33:59;;;;;;;11.40;9.02;;;8.80;99.90;;;;;;4966011;28;20438;-60
2022/12/28 09:36:31;;;;;;;14.73;9.13;;;8.80;99.90;;;;;;4980981;28;20449;-61
2022/12/28 09:38:58;;;;;;;13.20;8.15;;;8.90;99.90;;;;;;4970683;28;20051;-61
2022/12/28 09:41:35;;;;;;;12.43;7.70;;;8.90;99.90;;;;;;4975242;28;20142;-58
2022/12/28 09:44:16;;;;;;;10.50;7.18;;;8.90;99.90;;;;;;4974375;28;20038;-61
2022/12/28 09:46:53;;;;;;;9.95;6.40;;;9.00;99.90;;;;;;5000531;28;20038;-60
2022/12/28 09:49:26;;;;;;;9.20;5.85;;;9.00;99.90;;;;;;4986785;28;20049;-61
2022/12/28 09:52:00;;;;;;;13.87;8.73;;;9.00;99.90;;;;;;4975103;28;20061;-60
2022/12/28 09:54:26;;;;;;;10.80;7.60;;;9.10;99.90;;;;;;4971971;28;20053;-60
2022/12/28 09:56:52;;;;;;;10.02;7.47;;;9.10;99.90;;;;;;4986160;28;20125;-59
2022/12/28 09:59:22;;;;;;;10.10;7.35;;;9.10;99.90;;;;;;4973186;28;20054;-56
2022/12/28 10:01:55;;;;;;;9.70;7.30;;;9.00;99.90;;;;;;4974410;28;20064;-57
2022/12/28 10:04:21;;;;;;;10.20;7.07;;;9.00;99.90;;;;;;4961680;28;20512;-59
2022/12/28 10:06:46;;;;;;;11.45;7.32;;;9.00;99.90;;;;;;4968253;28;20046;-57
2022/12/28 10:09:28;;;;;;;8.32;6.38;;;8.90;99.90;;;;;;4973869;28;20512;-58
2022/12/28 10:11:55;;;;;;;9.70;5.80;;;9.00;99.90;;;;;;4980602;28;20046;-58
2022/12/28 10:14:34;;;;;;;7.85;5.82;;;8.90;99.90;;;;;;4972703;28;20034;-56
2022/12/28 10:17:00;;;;;;;7.28;5.60;;;8.90;99.90;;;;;;4973439;28;20041;-58
2022/12/28 10:19:28;;;;;;;7.95;5.63;;;8.80;99.90;;;;;;4969882;28;20046;-58
2022/12/28 10:22:18;;;;;;;15.48;6.35;;;8.80;99.90;;;;;;4959964;28;20055;-58
2022/12/28 10:24:45;;;;;;;7.72;5.80;;;8.80;99.90;;;;;;4958724;28;20513;-57
2022/12/28 10:27:29;;;;;;;9.82;6.95;;;8.70;99.90;;;;;;4958803;28;20049;-57
2022/12/28 10:29:58;;;;;;;11.38;7.60;;;8.70;99.90;;;;;;4983924;28;20068;-57
2022/12/28 10:32:23;;;;;;;30.92;22.08;;;8.70;99.90;;;;;;4994072;28;20042;-58
2022/12/28 10:35:00;;;;;;;22.75;12.63;;;8.70;99.90;;;;;;4982062;28;20045;-58
2022/12/28 10:37:29;;;;;;;12.35;8.95;;;8.70;99.90;;;;;;5002375;28;20261;-57
2022/12/28 10:40:26;;;;;;;13.00;9.05;;;8.70;99.90;;;;;;4963095;28;20066;-57
2022/12/28 10:42:56;;;;;;;11.65;8.43;;;8.70;99.90;;;;;;4976796;28;20042;-58
2022/12/28 10:45:27;;;;;;;14.27;9.93;;;8.70;99.90;;;;;;4980104;28;20038;-57
2022/12/28 10:47:54;;;;;;;15.02;10.40;;;8.70;99.90;;;;;;4970540;28;20042;-58
2022/12/28 10:51:16;;;;;;;16.33;11.45;;;8.70;99.90;;;;;;4960824;28;20078;-57
2022/12/28 10:53:50;;;;;;;15.93;11.80;;;8.70;99.90;;;;;;4914129;28;20082;-57
2022/12/28 10:56:20;;;;;;;18.80;12.77;;;8.70;99.90;;;;;;4985495;28;20076;-58
2022/12/28 10:58:48;;;;;;;16.25;11.63;;;8.80;99.90;;;;;;4972343;28;20092;-58
2022/12/28 11:01:13;;;;;;;17.13;12.82;;;8.80;99.90;;;;;;4965621;28;20512;-57
2022/12/28 11:03:55;;;;;;;18.25;13.27;;;8.80;99.90;;;;;;4997756;28;20050;-59
2022/12/28 11:06:49;;;;;;;21.35;13.40;;;8.90;99.90;;;;;;4983479;28;20041;-58
2022/12/28 11:09:19;;;;;;;21.00;13.27;;;8.90;99.90;;;;;;4966267;28;20048;-56
2022/12/28 11:11:47;;;;;;;17.58;13.07;;;8.90;99.90;;;;;;4981414;28;20034;-58
2022/12/28 11:14:34;;;;;;;18.10;12.77;;;8.90;99.90;;;;;;4980709;28;20046;-58
2022/12/28 11:17:12;;;;;;;15.05;11.50;;;8.90;99.90;;;;;;4969051;28;20485;-58
2022/12/28 11:19:38;;;;;;;17.42;11.30;;;8.90;99.90;;;;;;4969039;28;20034;-58
2022/12/28 11:22:03;;;;;;;15.13;10.23;;;8.90;99.90;;;;;;4987403;28;20046;-59
2022/12/28 11:24:29;;;;;;;14.65;10.27;;;8.90;99.90;;;;;;4951969;28;22074;-59
2022/12/28 11:26:56;;;;;;;12.73;9.65;;;9.00;99.90;;;;;;4953504;28;20043;-59
2022/12/28 11:29:22;;;;;;;13.00;10.52;;;9.00;99.90;;;;;;4963210;28;20050;-59
2022/12/28 11:31:57;;;;;;;14.40;11.55;;;9.00;99.90;;;;;;4969810;28;20524;-57
2022/12/28 11:34:25;;;;;;;13.60;10.25;;;9.00;99.90;;;;;;4979708;28;20105;-59
2022/12/28 11:36:51;;;;;;;14.95;12.50;;;9.00;99.90;;;;;;4971956;28;20061;-58
2022/12/28 11:39:26;;;;;;;14.95;11.95;;;9.00;99.90;;;;;;4994614;28;20038;-59
2022/12/28 11:41:53;;;;;;;18.85;12.80;;;9.10;99.90;;;;;;4954554;28;20068;-58
2022/12/28 11:44:23;;;;;;;15.50;12.73;;;9.10;99.90;;;;;;4968960;28;20049;-58
2022/12/28 11:47:15;;;;;;;15.77;11.85;;;9.10;99.90;;;;;;4971122;28;20070;-59
2022/12/28 11:49:46;;;;;;;14.65;11.77;;;9.10;99.90;;;;;;4967451;28;20042;-57
2022/12/28 11:52:22;;;;;;;13.05;10.15;;;9.10;99.90;;;;;;4982476;28;20042;-56
2022/12/28 11:55:20;;;;;;;12.23;10.27;;;9.10;99.90;;;;;;4971499;28;20489;-59
2022/12/28 11:57:46;;;;;;;13.63;10.48;;;9.20;99.90;;;;;;4971273;28;20035;-58
2022/12/28 12:00:18;;;;;;;13.50;10.50;;;9.20;99.90;;;;;;4947858;28;20502;-58
2022/12/28 12:02:51;;;;;;;13.77;10.43;;;9.20;99.90;;;;;;4955817;28;20057;-56
2022/12/28 12:05:35;;;;;;;13.60;10.87;;;9.20;99.90;;;;;;4947215;28;20035;-59
2022/12/28 12:08:21;;;;;;;15.20;11.65;;;9.20;99.90;;;;;;4977290;28;20374;-59
2022/12/28 12:11:25;;;;;;;15.95;11.15;;;9.20;99.90;;;;;;4955268;28;20458;-57
2022/12/28 12:13:53;;;;;;;12.93;11.13;;;9.20;99.90;;;;;;4967386;28;22425;-57
2022/12/28 12:16:29;;;;;;;15.73;12.15;;;9.20;99.90;;;;;;4966736;28;20129;-59
2022/12/28 12:18:58;;;;;;;16.92;12.40;;;9.20;99.90;;;;;;4963985;28;20054;-57
2022/12/28 12:21:26;;;;;;;17.42;12.70;;;9.20;99.90;;;;;;4953306;28;20038;-57
2022/12/28 12:23:59;;;;;;;18.52;13.73;;;9.20;99.90;;;;;;4977022;28;20046;-57
2022/12/28 12:26:45;;;;;;;16.13;12.00;;;9.20;99.90;;;;;;4962717;28;20042;-57
2022/12/28 12:29:41;;;;;;;15.30;12.52;;;9.10;99.90;;;;;;4961096;28;20041;-59
2022/12/28 12:32:24;;;;;;;13.98;11.50;;;9.10;99.90;;;;;;4957268;28;20062;-57
2022/12/28 12:35:00;;;;;;;14.30;11.50;;;9.10;99.90;;;;;;4968720;28;20513;-59
2022/12/28 12:37:46;;;;;;;12.10;9.48;;;9.10;99.90;;;;;;4974232;28;20344;-59
2022/12/28 12:41:13;;;;;;;11.85;9.20;;;9.10;99.90;;;;;;4964109;28;20039;-59
2022/12/28 12:43:56;;;;;;;11.32;8.90;;;9.10;99.90;;;;;;4938499;28;20326;-59
2022/12/28 12:46:50;;;;;;;11.55;8.13;;;9.10;99.90;;;;;;4976804;28;20568;-58
2022/12/28 12:49:48;;;;;;;10.90;7.25;;;9.10;99.90;;;;;;4967263;28;20073;-58
2022/12/28 12:52:48;;;;;;;9.45;7.05;;;9.10;99.90;;;;;;4990222;28;20044;-58
2022/12/28 12:55:48;;;;;;;10.52;8.05;;;9.10;99.90;;;;;;4993184;28;20042;-57
2022/12/28 12:58:54;;;;;;;11.65;7.80;;;9.10;99.90;;;;;;4997759;28;20038;-59
2022/12/28 13:01:43;;;;;;;9.10;7.55;;;9.10;99.90;;;;;;4964443;28;20053;-58
2022/12/28 13:04:30;;;;;;;11.60;8.07;;;9.10;99.90;;;;;;4965255;28;20604;-56
2022/12/28 13:06:59;;;;;;;11.02;7.75;;;9.10;99.90;;;;;;4988483;28;20086;-57
2022/12/28 13:09:28;;;;;;;8.98;7.15;;;9.10;99.90;;;;;;4967114;28;20062;-58
2022/12/28 13:11:55;;;;;;;8.20;6.63;;;9.10;99.90;;;;;;4980141;28;20121;-59
2022/12/28 13:14:23;;;;;;;9.77;6.63;;;9.10;99.90;;;;;;4969129;28;20500;-58
2022/12/28 13:16:52;;;;;;;10.18;6.90;;;9.10;99.90;;;;;;4963657;28;20543;-56
2022/12/28 13:19:27;;;;;;;7.18;6.13;;;9.10;99.90;;;;;;4948881;28;20290;-59
2022/12/28 13:21:53;;;;;;;7.95;6.15;;;9.10;99.90;;;;;;4978552;28;20042;-59
2022/12/28 13:24:20;;;;;;;8.90;5.93;;;9.10;99.90;;;;;;4968800;28;20046;-57
2022/12/28 13:26:48;;;;;;;6.45;5.40;;;9.10;99.90;;;;;;4963041;28;20050;-59